Time;durP1;ratioP1;P1;durP2;ratioP2;P2;SDS_P1;SDS_P2;PMS_P1;PMS_P2;Temp;Humidity;BMP_temperature;BMP_pressure;BME280_temperature;BME280_humidity;BME280_pressure;Samples;Min_cycle;Max_cycle;Signal;HPM_P1;HPM_P2
2024/03/20 00:00:34;;;;;;;3.25;2.10;;;;;;;;;;5103326;28;20450;-73
2024/03/20 00:03:00;;;;;;;3.40;2.15;;;;;;;;;;5085703;28;20080;-72
2024/03/20 00:05:27;;;;;;;7.35;2.67;;;;;;;;;;5102252;28;20512;-73
2024/03/20 00:07:53;;;;;;;2.22;2.03;;;;;;;;;;5102830;28;20388;-72
2024/03/20 00:10:20;;;;;;;8.10;2.75;;;;;;;;;;5102139;28;20032;-73
2024/03/20 00:12:46;;;;;;;6.10;2.60;;;;;;;;;;5075764;28;20016;-73
2024/03/20 00:15:12;;;;;;;5.15;2.53;;;;;;;;;;5106566;28;20347;-72
2024/03/20 00:17:39;;;;;;;3.70;2.58;;;;;;;;;;5092085;28;20016;-73
2024/03/20 00:20:06;;;;;;;5.40;2.85;;;;;;;;;;5103587;27;20500;-73
2024/03/20 00:22:35;;;;;;;5.63;2.25;;;;;;;;;;5095717;28;20855;-72
2024/03/20 00:25:01;;;;;;;3.88;2.05;;;;;;;;;;5103646;28;20023;-73
2024/03/20 00:27:27;;;;;;;3.72;2.38;;;;;;;;;;5077102;28;20028;-73
2024/03/20 00:29:54;;;;;;;4.30;2.90;;;;;;;;;;5099501;28;20024;-72
2024/03/20 00:32:20;;;;;;;4.22;2.53;;;;;;;;;;5090312;27;20024;-73
2024/03/20 00:34:46;;;;;;;2.97;2.35;;;;;;;;;;5101108;28;20075;-72
2024/03/20 00:37:12;;;;;;;4.68;2.92;;;;;;;;;;5104819;28;20034;-71
2024/03/20 00:39:39;;;;;;;8.18;3.28;;;;;;;;;;5105041;28;20031;-72
2024/03/20 00:42:05;;;;;;;4.25;2.00;;;;;;;;;;5104262;28;20417;-73
2024/03/20 00:44:31;;;;;;;5.72;3.10;;;;;;;;;;5091283;28;20030;-73
2024/03/20 00:46:58;;;;;;;4.50;2.92;;;;;;;;;;5097069;28;20050;-73
2024/03/20 00:49:24;;;;;;;10.05;2.78;;;;;;;;;;5085696;28;20039;-73
2024/03/20 00:51:50;;;;;;;4.03;2.80;;;;;;;;;;5103866;28;20039;-73
2024/03/20 00:54:16;;;;;;;4.10;2.67;;;;;;;;;;5104021;28;20394;-71
2024/03/20 00:56:43;;;;;;;5.35;3.15;;;;;;;;;;5093720;28;20031;-72
2024/03/20 00:59:09;;;;;;;8.70;2.70;;;;;;;;;;5097248;27;20035;-73
2024/03/20 01:01:35;;;;;;;4.90;2.70;;;;;;;;;;5102392;28;20042;-72
2024/03/20 01:04:01;;;;;;;6.28;2.97;;;;;;;;;;5102943;28;20036;-73
2024/03/20 01:06:27;;;;;;;3.88;2.70;;;;;;;;;;5101101;28;20035;-73
2024/03/20 01:08:57;;;;;;;4.65;2.72;;;;;;;;;;5096620;28;20123;-73
2024/03/20 01:11:23;;;;;;;5.15;2.50;;;;;;;;;;5094265;28;20452;-72
2024/03/20 01:13:50;;;;;;;6.10;2.83;;;;;;;;;;5105365;28;20032;-75
2024/03/20 01:16:16;;;;;;;4.50;2.58;;;;;;;;;;5104384;27;20065;-73
2024/03/20 01:18:42;;;;;;;8.23;2.78;;;;;;;;;;5099641;27;20054;-73
2024/03/20 01:21:08;;;;;;;9.02;2.97;;;;;;;;;;5101365;28;20035;-73
2024/03/20 01:23:34;;;;;;;5.78;2.88;;;;;;;;;;5102444;28;20027;-71
2024/03/20 01:26:00;;;;;;;11.43;2.97;;;;;;;;;;5083115;28;20032;-72
2024/03/20 01:28:27;;;;;;;7.75;3.08;;;;;;;;;;5097090;27;20215;-72
2024/03/20 01:30:56;;;;;;;8.98;2.83;;;;;;;;;;5099778;28;20461;-72
2024/03/20 01:33:23;;;;;;;10.80;3.22;;;;;;;;;;5103143;28;20419;-72
2024/03/20 01:35:49;;;;;;;9.50;3.33;;;;;;;;;;5090446;28;20394;-72
2024/03/20 01:38:15;;;;;;;4.22;2.25;;;;;;;;;;5105535;28;20065;-72
2024/03/20 01:40:42;;;;;;;7.93;2.90;;;;;;;;;;5107665;28;20020;-72
2024/03/20 01:43:26;;;;;;;4.85;2.63;;;;;;;;;;5100773;28;20435;-73
2024/03/20 01:45:52;;;;;;;5.43;3.22;;;;;;;;;;5099781;27;20028;-72
2024/03/20 01:48:19;;;;;;;15.00;3.20;;;;;;;;;;5091348;28;20032;-73
2024/03/20 01:50:45;;;;;;;4.53;2.63;;;;;;;;;;5108873;27;20036;-72
2024/03/20 01:53:14;;;;;;;8.82;2.28;;;;;;;;;;5094974;28;20031;-73
2024/03/20 01:55:41;;;;;;;8.43;3.40;;;;;;;;;;5106908;27;20220;-72
2024/03/20 01:58:07;;;;;;;3.95;2.60;;;;;;;;;;5097217;28;20469;-72
2024/03/20 02:00:33;;;;;;;4.70;2.80;;;;;;;;;;5089559;28;20020;-72
2024/03/20 02:03:01;;;;;;;4.90;2.63;;;;;;;;;;5105672;28;20040;-73
2024/03/20 02:05:27;;;;;;;7.63;3.28;;;;;;;;;;5105921;28;20043;-72
2024/03/20 02:07:55;;;;;;;4.95;2.55;;;;;;;;;;5105251;28;20060;-71
2024/03/20 02:10:21;;;;;;;7.22;2.92;;;;;;;;;;5084399;28;20027;-72
2024/03/20 02:13:06;;;;;;;4.68;2.75;;;;;;;;;;5101329;28;20024;-72
2024/03/20 02:15:33;;;;;;;11.77;3.03;;;;;;;;;;5107729;27;20449;-73
2024/03/20 02:18:00;;;;;;;3.38;2.83;;;;;;;;;;5103458;28;20315;-72
2024/03/20 02:20:26;;;;;;;4.65;2.67;;;;;;;;;;5086378;28;20073;-72
2024/03/20 02:22:52;;;;;;;5.00;3.40;;;;;;;;;;5099914;28;20036;-71
2024/03/20 02:25:24;;;;;;;4.70;3.00;;;;;;;;;;5095217;28;20421;-72
2024/03/20 02:27:50;;;;;;;5.85;2.92;;;;;;;;;;5077840;28;20031;-72
2024/03/20 02:30:16;;;;;;;5.50;3.15;;;;;;;;;;5090529;28;20481;-73
2024/03/20 02:32:42;;;;;;;4.55;2.70;;;;;;;;;;5093129;28;20047;-72
2024/03/20 02:35:08;;;;;;;8.35;2.63;;;;;;;;;;5072844;28;20028;-72
2024/03/20 02:37:35;;;;;;;7.07;3.33;;;;;;;;;;5101434;28;20036;-72
2024/03/20 02:40:01;;;;;;;4.88;2.47;;;;;;;;;;5093789;28;20544;-72
2024/03/20 02:42:30;;;;;;;9.05;3.28;;;;;;;;;;5091775;28;20023;-72
2024/03/20 02:44:58;;;;;;;8.45;2.50;;;;;;;;;;5108028;27;20051;-72
2024/03/20 02:47:25;;;;;;;4.78;2.65;;;;;;;;;;5084431;28;20032;-72
2024/03/20 02:49:53;;;;;;;4.13;2.55;;;;;;;;;;5097554;28;20036;-72
2024/03/20 02:52:22;;;;;;;6.70;2.80;;;;;;;;;;5098826;28;20023;-72
2024/03/20 02:54:48;;;;;;;4.57;3.00;;;;;;;;;;5099220;28;20024;-72
2024/03/20 02:57:15;;;;;;;10.45;3.03;;;;;;;;;;5101333;28;20026;-72
2024/03/20 02:59:41;;;;;;;5.25;3.08;;;;;;;;;;5090305;28;20144;-72
2024/03/20 03:02:07;;;;;;;10.68;2.72;;;;;;;;;;5104562;28;20912;-72
2024/03/20 03:04:34;;;;;;;7.47;3.03;;;;;;;;;;5111340;28;20035;-73
2024/03/20 03:07:00;;;;;;;6.18;3.00;;;;;;;;;;5092752;28;20062;-72
2024/03/20 03:09:26;;;;;;;3.47;2.67;;;;;;;;;;5089768;28;20051;-73
2024/03/20 03:11:52;;;;;;;5.22;2.95;;;;;;;;;;5108430;28;20088;-73
2024/03/20 03:14:19;;;;;;;4.38;2.58;;;;;;;;;;5102189;28;20133;-73
2024/03/20 03:16:45;;;;;;;5.75;3.00;;;;;;;;;;5098433;28;20401;-73
2024/03/20 03:19:11;;;;;;;4.88;3.42;;;;;;;;;;5104331;28;20087;-74
2024/03/20 03:21:37;;;;;;;7.10;3.25;;;;;;;;;;5090670;28;20027;-73
2024/03/20 03:24:04;;;;;;;11.30;3.92;;;;;;;;;;5096917;28;20030;-73
2024/03/20 03:26:33;;;;;;;9.98;2.83;;;;;;;;;;5080064;28;20169;-73
2024/03/20 03:29:00;;;;;;;5.05;2.60;;;;;;;;;;5096860;28;20476;-73
2024/03/20 03:31:26;;;;;;;5.60;2.78;;;;;;;;;;5081433;28;20031;-73
2024/03/20 03:33:52;;;;;;;9.65;3.00;;;;;;;;;;5093373;28;20034;-73
2024/03/20 03:36:18;;;;;;;9.35;3.13;;;;;;;;;;5077488;28;20024;-74
2024/03/20 03:38:45;;;;;;;9.15;3.42;;;;;;;;;;5092786;28;20052;-74
2024/03/20 03:41:11;;;;;;;10.55;2.75;;;;;;;;;;5072778;28;20044;-73
2024/03/20 03:43:38;;;;;;;5.47;3.20;;;;;;;;;;5103880;28;20208;-73
2024/03/20 03:46:05;;;;;;;6.60;3.15;;;;;;;;;;5105656;28;20036;-73
2024/03/20 03:48:31;;;;;;;5.90;3.17;;;;;;;;;;5079997;28;20028;-74
2024/03/20 03:50:57;;;;;;;9.30;3.08;;;;;;;;;;5074269;28;20028;-74
2024/03/20 03:53:23;;;;;;;5.05;3.00;;;;;;;;;;5087501;28;20028;-74
2024/03/20 03:55:49;;;;;;;4.35;2.80;;;;;;;;;;5100782;28;20362;-73
2024/03/20 03:58:16;;;;;;;3.75;2.42;;;;;;;;;;5099098;28;20072;-74
2024/03/20 04:00:42;;;;;;;8.00;3.28;;;;;;;;;;5083462;28;20023;-74
2024/03/20 04:03:08;;;;;;;9.60;3.15;;;;;;;;;;5093554;28;20055;-73
2024/03/20 04:05:35;;;;;;;6.43;3.00;;;;;;;;;;5081720;28;20507;-73
2024/03/20 04:08:01;;;;;;;5.28;3.15;;;;;;;;;;5079700;28;20059;-73
2024/03/20 04:10:28;;;;;;;5.38;2.80;;;;;;;;;;5082132;28;20024;-72
2024/03/20 04:12:54;;;;;;;5.53;3.33;;;;;;;;;;5077533;28;20051;-72
2024/03/20 04:15:20;;;;;;;7.43;3.08;;;;;;;;;;5091357;28;20262;-73
2024/03/20 04:17:46;;;;;;;7.85;2.95;;;;;;;;;;5094555;28;20020;-73
2024/03/20 04:20:12;;;;;;;4.43;2.92;;;;;;;;;;5095349;28;20032;-73
2024/03/20 04:22:39;;;;;;;6.38;3.20;;;;;;;;;;5100807;28;20089;-72
2024/03/20 04:25:06;;;;;;;4.50;2.67;;;;;;;;;;5077838;28;20082;-73
2024/03/20 04:27:36;;;;;;;4.28;3.30;;;;;;;;;;5086468;28;20059;-72
2024/03/20 04:30:12;;;;;;;5.55;2.95;;;;;;;;;;5086669;28;20110;-73
2024/03/20 04:32:39;;;;;;;5.90;2.90;;;;;;;;;;5111661;28;20032;-72
2024/03/20 04:35:07;;;;;;;6.88;3.90;;;;;;;;;;5102151;27;20024;-73
2024/03/20 04:37:36;;;;;;;5.55;3.08;;;;;;;;;;5086140;28;20076;-73
2024/03/20 04:40:03;;;;;;;4.88;3.38;;;;;;;;;;5100708;27;20409;-73
2024/03/20 04:42:30;;;;;;;8.02;2.92;;;;;;;;;;5081816;28;20567;-72
2024/03/20 04:44:56;;;;;;;5.63;2.88;;;;;;;;;;5078713;28;20393;-73
2024/03/20 04:47:23;;;;;;;5.38;3.85;;;;;;;;;;5102125;27;20089;-72
2024/03/20 04:49:49;;;;;;;5.38;3.15;;;;;;;;;;5097334;28;20523;-73
2024/03/20 04:52:15;;;;;;;4.72;2.85;;;;;;;;;;5097999;28;20027;-73
2024/03/20 04:54:41;;;;;;;12.32;3.53;;;;;;;;;;5080864;28;20099;-73
2024/03/20 04:57:07;;;;;;;7.40;3.63;;;;;;;;;;5102366;27;20492;-71
2024/03/20 04:59:34;;;;;;;8.95;3.17;;;;;;;;;;5101153;28;20028;-72
2024/03/20 05:02:00;;;;;;;6.05;3.60;;;;;;;;;;5094876;27;20035;-72
2024/03/20 05:04:26;;;;;;;7.05;3.25;;;;;;;;;;5100754;28;20023;-72
2024/03/20 05:06:52;;;;;;;7.13;3.53;;;;;;;;;;5099786;28;20024;-72
2024/03/20 05:09:19;;;;;;;9.32;3.63;;;;;;;;;;5096308;28;20110;-73
2024/03/20 05:11:46;;;;;;;8.77;3.35;;;;;;;;;;5088037;28;20043;-73
2024/03/20 05:14:12;;;;;;;5.95;3.22;;;;;;;;;;5085912;28;20020;-73
2024/03/20 05:16:39;;;;;;;6.28;3.53;;;;;;;;;;5093509;28;20031;-72
2024/03/20 05:19:06;;;;;;;7.07;3.15;;;;;;;;;;5096099;28;20028;-72
2024/03/20 05:21:32;;;;;;;5.97;3.55;;;;;;;;;;5093155;28;20107;-73
2024/03/20 05:23:59;;;;;;;7.30;3.25;;;;;;;;;;5084156;28;20034;-73
2024/03/20 05:26:25;;;;;;;7.97;3.72;;;;;;;;;;5078970;28;20032;-73
2024/03/20 05:28:54;;;;;;;6.30;3.33;;;;;;;;;;5092949;28;20036;-73
2024/03/20 05:31:27;;;;;;;7.22;3.20;;;;;;;;;;5078339;28;20030;-73
2024/03/20 05:33:54;;;;;;;6.60;3.75;;;;;;;;;;5081446;28;20106;-73
2024/03/20 05:36:20;;;;;;;9.27;4.10;;;;;;;;;;5090933;28;20572;-73
2024/03/20 05:38:46;;;;;;;8.85;4.07;;;;;;;;;;5098889;28;20074;-73
2024/03/20 05:41:12;;;;;;;6.68;3.03;;;;;;;;;;5094442;28;20116;-73
2024/03/20 05:43:38;;;;;;;10.80;4.25;;;;;;;;;;5102104;28;20023;-73
2024/03/20 05:46:04;;;;;;;9.63;3.50;;;;;;;;;;5098964;28;20028;-73
2024/03/20 05:48:31;;;;;;;6.13;3.10;;;;;;;;;;5100380;28;20495;-73
2024/03/20 05:50:57;;;;;;;7.53;3.88;;;;;;;;;;5096805;27;20063;-73
2024/03/20 05:53:23;;;;;;;7.85;4.47;;;;;;;;;;5077829;28;20306;-73
2024/03/20 05:55:50;;;;;;;8.65;3.55;;;;;;;;;;5096332;28;20032;-73
2024/03/20 05:58:19;;;;;;;10.35;3.15;;;;;;;;;;5097908;27;20031;-73
2024/03/20 06:00:45;;;;;;;8.32;3.70;;;;;;;;;;5088928;28;20027;-73
2024/03/20 06:03:11;;;;;;;5.55;3.13;;;;;;;;;;5081097;28;20032;-73
2024/03/20 06:05:38;;;;;;;7.75;3.15;;;;;;;;;;5104385;28;20403;-73
2024/03/20 06:08:04;;;;;;;4.32;3.30;;;;;;;;;;5081440;28;20032;-73
2024/03/20 06:10:31;;;;;;;3.85;2.92;;;;;;;;;;5095440;28;20114;-73
2024/03/20 06:12:57;;;;;;;6.15;3.65;;;;;;;;;;5084497;28;20062;-72
2024/03/20 06:15:23;;;;;;;5.75;3.35;;;;;;;;;;5084526;28;20080;-73
2024/03/20 06:17:49;;;;;;;8.15;3.53;;;;;;;;;;5098148;28;20021;-74
2024/03/20 06:20:16;;;;;;;6.13;3.58;;;;;;;;;;5098950;28;20024;-72
2024/03/20 06:22:42;;;;;;;4.80;3.53;;;;;;;;;;5100054;28;20035;-72
2024/03/20 06:25:08;;;;;;;5.55;3.65;;;;;;;;;;5097356;28;20031;-73
2024/03/20 06:27:35;;;;;;;4.30;3.10;;;;;;;;;;5076841;28;20134;-72
2024/03/20 06:30:11;;;;;;;7.25;4.47;;;;;;;;;;5076097;28;20489;-72
2024/03/20 06:32:38;;;;;;;9.50;3.83;;;;;;;;;;5097987;28;20473;-72
2024/03/20 06:35:04;;;;;;;4.75;3.10;;;;;;;;;;5085582;28;20042;-72
2024/03/20 06:37:30;;;;;;;10.38;4.68;;;;;;;;;;5099140;28;20035;-71
2024/03/20 06:39:56;;;;;;;8.65;5.20;;;;;;;;;;5083645;28;20103;-74
2024/03/20 06:42:23;;;;;;;6.13;3.75;;;;;;;;;;5099484;28;20023;-72
2024/03/20 06:44:49;;;;;;;6.80;3.50;;;;;;;;;;5095068;28;20544;-72
2024/03/20 06:47:19;;;;;;;7.82;4.35;;;;;;;;;;5102116;28;20050;-71
2024/03/20 06:49:47;;;;;;;6.20;4.20;;;;;;;;;;5078388;28;20060;-72
2024/03/20 06:52:19;;;;;;;6.20;3.50;;;;;;;;;;5102776;28;20012;-73
2024/03/20 06:54:46;;;;;;;6.82;4.18;;;;;;;;;;5096030;28;20020;-73
2024/03/20 06:57:13;;;;;;;6.97;4.30;;;;;;;;;;5080334;28;20039;-72
2024/03/20 06:59:39;;;;;;;6.60;4.05;;;;;;;;;;5093781;28;20148;-72
2024/03/20 07:02:06;;;;;;;7.35;4.32;;;;;;;;;;5088842;28;20062;-72
2024/03/20 07:04:32;;;;;;;13.93;4.80;;;;;;;;;;5100983;28;20494;-72
2024/03/20 07:06:59;;;;;;;6.40;4.25;;;;;;;;;;5096405;28;20034;-72
2024/03/20 07:09:27;;;;;;;6.05;4.22;;;;;;;;;;5105690;28;20150;-72
2024/03/20 07:11:53;;;;;;;8.18;4.20;;;;;;;;;;5106624;28;20517;-72
2024/03/20 07:14:19;;;;;;;8.57;4.20;;;;;;;;;;5094303;28;20023;-72
2024/03/20 07:16:46;;;;;;;5.93;3.65;;;;;;;;;;5108779;28;20057;-72
2024/03/20 07:19:12;;;;;;;8.38;5.38;;;;;;;;;;5080421;28;20401;-72
2024/03/20 07:21:39;;;;;;;7.18;4.00;;;;;;;;;;5081831;28;20067;-72
2024/03/20 07:24:08;;;;;;;7.30;4.30;;;;;;;;;;5105601;28;20089;-72
2024/03/20 07:26:37;;;;;;;5.43;3.42;;;;;;;;;;5108705;28;20036;-72
2024/03/20 07:29:13;;;;;;;6.35;4.03;;;;;;;;;;5107370;28;20031;-72
2024/03/20 07:31:39;;;;;;;6.85;3.65;;;;;;;;;;5093745;28;20023;-72
2024/03/20 07:34:06;;;;;;;6.32;3.67;;;;;;;;;;5100071;28;20038;-72
2024/03/20 07:36:36;;;;;;;6.63;3.63;;;;;;;;;;5098851;28;20024;-73
2024/03/20 07:39:04;;;;;;;6.00;3.25;;;;;;;;;;5106237;28;20032;-72
2024/03/20 07:41:31;;;;;;;6.10;3.90;;;;;;;;;;5096511;28;20020;-72
2024/03/20 07:43:57;;;;;;;5.47;3.42;;;;;;;;;;5099621;28;20116;-72
2024/03/20 07:46:23;;;;;;;8.48;3.50;;;;;;;;;;5096018;28;20381;-72
2024/03/20 07:48:49;;;;;;;6.40;3.70;;;;;;;;;;5106345;28;20023;-73
2024/03/20 07:51:16;;;;;;;4.57;3.28;;;;;;;;;;5085241;28;20036;-73
2024/03/20 07:53:42;;;;;;;6.68;3.80;;;;;;;;;;5100088;27;20453;-72
2024/03/20 07:56:09;;;;;;;4.78;2.63;;;;;;;;;;5087532;28;20451;-72
2024/03/20 07:58:36;;;;;;;6.15;3.33;;;;;;;;;;5105111;28;20489;-72
2024/03/20 08:01:04;;;;;;;3.35;2.40;;;;;;;;;;5085537;28;20497;-71
2024/03/20 08:03:30;;;;;;;5.28;3.10;;;;;;;;;;5087299;28;20114;-73
2024/03/20 08:05:56;;;;;;;5.63;3.70;;;;;;;;;;5104877;28;20031;-73
2024/03/20 08:08:22;;;;;;;4.88;2.67;;;;;;;;;;5100408;28;20024;-73
2024/03/20 08:10:49;;;;;;;6.15;3.53;;;;;;;;;;5105178;28;20251;-72
2024/03/20 08:13:15;;;;;;;4.38;2.53;;;;;;;;;;5106138;27;20430;-73
2024/03/20 08:15:42;;;;;;;3.75;2.97;;;;;;;;;;5092472;28;20035;-71
2024/03/20 08:18:08;;;;;;;4.05;2.72;;;;;;;;;;5082933;28;20020;-72
2024/03/20 08:20:35;;;;;;;6.28;3.25;;;;;;;;;;5102370;28;20020;-71
2024/03/20 08:23:01;;;;;;;5.32;3.38;;;;;;;;;;5107046;27;20046;-72
2024/03/20 08:25:28;;;;;;;4.70;3.38;;;;;;;;;;5102621;28;20023;-72
2024/03/20 08:27:55;;;;;;;6.05;3.00;;;;;;;;;;5092187;28;20080;-72
2024/03/20 08:30:21;;;;;;;5.18;3.20;;;;;;;;;;5095004;28;20077;-73
2024/03/20 08:32:48;;;;;;;6.15;3.00;;;;;;;;;;5095587;27;20015;-72
2024/03/20 08:35:16;;;;;;;5.28;3.97;;;;;;;;;;5098285;28;20299;-73
2024/03/20 08:37:43;;;;;;;6.10;4.20;;;;;;;;;;5098579;27;20074;-72
2024/03/20 08:40:10;;;;;;;6.97;4.15;;;;;;;;;;5088813;28;20265;-73
2024/03/20 08:42:48;;;;;;;6.80;3.75;;;;;;;;;;5106256;28;20045;-71
2024/03/20 08:45:14;;;;;;;11.27;4.10;;;;;;;;;;5086838;28;20034;-72
2024/03/20 08:47:40;;;;;;;7.13;3.25;;;;;;;;;;5087393;28;20039;-72
2024/03/20 08:50:08;;;;;;;6.70;4.05;;;;;;;;;;5077684;28;20127;-72
2024/03/20 08:52:34;;;;;;;6.88;4.25;;;;;;;;;;5097376;28;20071;-72
2024/03/20 08:55:00;;;;;;;5.60;3.40;;;;;;;;;;5097057;28;20058;-72
2024/03/20 08:57:27;;;;;;;7.53;3.78;;;;;;;;;;5085726;28;20028;-72
2024/03/20 08:59:53;;;;;;;8.27;4.78;;;;;;;;;;5084824;28;20035;-72
2024/03/20 09:02:19;;;;;;;5.47;3.53;;;;;;;;;;5079524;28;20032;-73
2024/03/20 09:04:45;;;;;;;11.02;4.18;;;;;;;;;;5086864;28;20034;-72
2024/03/20 09:07:11;;;;;;;5.20;4.45;;;;;;;;;;5099161;28;20090;-72
2024/03/20 09:09:37;;;;;;;13.48;4.65;;;;;;;;;;5094536;28;20016;-73
2024/03/20 09:12:07;;;;;;;6.22;4.05;;;;;;;;;;5097269;28;20020;-72
2024/03/20 09:14:36;;;;;;;6.28;4.00;;;;;;;;;;5091098;27;20020;-72
2024/03/20 09:17:02;;;;;;;7.63;4.22;;;;;;;;;;5080673;28;20028;-72
2024/03/20 09:19:28;;;;;;;6.43;3.92;;;;;;;;;;5079292;28;20696;-72
2024/03/20 09:21:54;;;;;;;5.35;3.30;;;;;;;;;;5087833;28;20070;-73
2024/03/20 09:24:24;;;;;;;6.00;3.42;;;;;;;;;;5097931;28;20051;-72
2024/03/20 09:26:54;;;;;;;7.13;4.20;;;;;;;;;;5075960;28;20056;-73
2024/03/20 09:29:21;;;;;;;6.60;4.13;;;;;;;;;;5099956;28;20031;-72
2024/03/20 09:31:47;;;;;;;9.98;4.13;;;;;;;;;;5092249;28;20388;-72
2024/03/20 09:34:17;;;;;;;7.40;3.42;;;;;;;;;;5105199;28;20408;-72
2024/03/20 09:36:45;;;;;;;4.97;3.30;;;;;;;;;;5088466;28;20123;-72
2024/03/20 09:39:12;;;;;;;4.47;3.20;;;;;;;;;;5094673;28;20097;-73
2024/03/20 09:41:39;;;;;;;6.40;3.85;;;;;;;;;;5105173;28;20034;-73
2024/03/20 09:44:11;;;;;;;6.70;3.90;;;;;;;;;;5088543;28;20059;-72
2024/03/20 09:46:39;;;;;;;4.38;3.20;;;;;;;;;;5106929;28;20028;-73
2024/03/20 09:49:05;;;;;;;6.13;4.18;;;;;;;;;;5104403;28;20505;-73
2024/03/20 09:51:31;;;;;;;6.30;3.80;;;;;;;;;;5078254;28;20027;-73
2024/03/20 09:53:58;;;;;;;5.53;3.70;;;;;;;;;;5107058;28;20026;-72
2024/03/20 09:56:27;;;;;;;8.02;4.35;;;;;;;;;;5088567;28;20019;-72
2024/03/20 09:58:57;;;;;;;6.00;3.25;;;;;;;;;;5088226;28;20053;-73
2024/03/20 10:01:23;;;;;;;8.57;4.30;;;;;;;;;;5096637;28;20554;-70
2024/03/20 10:03:56;;;;;;;8.40;4.75;;;;;;;;;;5080295;28;20099;-69
2024/03/20 10:06:23;;;;;;;9.55;6.18;;;;;;;;;;5091632;28;20485;-69
2024/03/20 10:08:49;;;;;;;11.52;7.70;;;;;;;;;;5091406;28;20042;-70
2024/03/20 10:11:15;;;;;;;7.95;5.72;;;;;;;;;;5083967;28;20035;-68
2024/03/20 10:13:42;;;;;;;6.80;4.95;;;;;;;;;;5077710;28;20074;-68
2024/03/20 10:16:10;;;;;;;17.90;9.35;;;;;;;;;;5085088;28;20529;-69
2024/03/20 10:18:36;;;;;;;19.90;10.80;;;;;;;;;;5095969;28;20055;-71
2024/03/20 10:21:03;;;;;;;10.30;5.88;;;;;;;;;;5083628;28;20443;-67
2024/03/20 10:23:29;;;;;;;7.65;4.32;;;;;;;;;;5084982;28;20028;-68
2024/03/20 10:25:59;;;;;;;8.05;5.20;;;;;;;;;;5099421;27;20663;-67
2024/03/20 10:28:29;;;;;;;5.82;4.75;;;;;;;;;;5110777;28;20114;-68
2024/03/20 10:31:00;;;;;;;7.63;4.05;;;;;;;;;;5100100;28;20023;-68
2024/03/20 10:33:27;;;;;;;6.65;3.78;;;;;;;;;;5085797;28;20109;-68
2024/03/20 10:35:54;;;;;;;7.05;4.65;;;;;;;;;;5092836;28;20057;-68
2024/03/20 10:38:20;;;;;;;7.82;4.80;;;;;;;;;;5096927;27;20058;-68
2024/03/20 10:40:51;;;;;;;9.07;4.95;;;;;;;;;;5094294;28;20111;-68
2024/03/20 10:43:21;;;;;;;6.25;4.53;;;;;;;;;;5077056;28;20028;-69
2024/03/20 10:45:48;;;;;;;6.82;4.32;;;;;;;;;;5085355;28;20032;-67
2024/03/20 10:48:18;;;;;;;9.57;5.85;;;;;;;;;;5097261;28;20026;-70
2024/03/20 10:50:48;;;;;;;5.80;4.80;;;;;;;;;;5106129;28;20031;-68
2024/03/20 10:53:17;;;;;;;5.40;3.80;;;;;;;;;;5098889;28;20075;-68
2024/03/20 10:55:44;;;;;;;9.98;6.70;;;;;;;;;;5096087;28;20038;-68
2024/03/20 10:58:18;;;;;;;8.70;5.90;;;;;;;;;;5069543;28;20031;-68
2024/03/20 11:00:48;;;;;;;8.25;5.07;;;;;;;;;;5096671;28;20024;-68
2024/03/20 11:03:33;;;;;;;8.60;4.97;;;;;;;;;;5096549;28;20031;-68
2024/03/20 11:05:59;;;;;;;6.93;4.80;;;;;;;;;;5098843;28;20035;-68
2024/03/20 11:08:25;;;;;;;9.68;5.60;;;;;;;;;;5095636;28;20035;-69
2024/03/20 11:10:53;;;;;;;8.32;5.50;;;;;;;;;;5098658;28;20450;-68
2024/03/20 11:13:22;;;;;;;8.45;5.13;;;;;;;;;;5091754;28;20070;-68
2024/03/20 11:15:55;;;;;;;8.02;5.15;;;;;;;;;;5094660;28;20054;-70
2024/03/20 11:18:22;;;;;;;8.18;5.53;;;;;;;;;;5101221;28;20464;-69
2024/03/20 11:20:48;;;;;;;8.95;5.50;;;;;;;;;;5105592;28;20115;-69
2024/03/20 11:23:25;;;;;;;8.57;5.45;;;;;;;;;;5099850;28;20043;-68
2024/03/20 11:25:51;;;;;;;8.88;4.78;;;;;;;;;;5095040;28;20030;-67
2024/03/20 11:28:18;;;;;;;9.93;6.10;;;;;;;;;;5092183;28;20024;-68
2024/03/20 11:30:46;;;;;;;6.95;4.65;;;;;;;;;;5088901;28;20516;-68
2024/03/20 11:33:12;;;;;;;8.98;5.72;;;;;;;;;;5108413;28;20027;-69
2024/03/20 11:35:39;;;;;;;8.27;5.18;;;;;;;;;;5097029;27;20032;-69
2024/03/20 11:38:05;;;;;;;9.13;5.85;;;;;;;;;;5107693;27;20052;-69
2024/03/20 11:40:35;;;;;;;7.60;5.13;;;;;;;;;;5112435;27;20461;-68
2024/03/20 11:43:01;;;;;;;10.00;5.90;;;;;;;;;;5102049;28;20035;-69
2024/03/20 11:45:30;;;;;;;10.60;5.43;;;;;;;;;;5105912;28;20032;-69
2024/03/20 11:47:56;;;;;;;6.55;4.70;;;;;;;;;;5084212;28;20040;-69
2024/03/20 11:50:25;;;;;;;8.38;4.90;;;;;;;;;;5077813;28;20500;-71
2024/03/20 11:52:51;;;;;;;10.15;6.97;;;;;;;;;;5078498;28;20274;-69
2024/03/20 11:55:18;;;;;;;8.77;5.88;;;;;;;;;;5097532;27;20031;-69
2024/03/20 11:57:44;;;;;;;9.48;6.28;;;;;;;;;;5100682;28;20164;-72
2024/03/20 12:00:14;;;;;;;6.32;5.07;;;;;;;;;;5104613;28;20040;-69
2024/03/20 12:02:41;;;;;;;8.57;5.28;;;;;;;;;;5103411;28;20085;-69
2024/03/20 12:05:11;;;;;;;8.68;5.90;;;;;;;;;;5086358;28;20459;-69
2024/03/20 12:07:39;;;;;;;5.65;3.85;;;;;;;;;;5084861;28;20123;-69
2024/03/20 12:10:06;;;;;;;4.90;4.43;;;;;;;;;;5088280;28;20037;-68
2024/03/20 12:12:32;;;;;;;7.18;4.60;;;;;;;;;;5096005;28;20051;-69
2024/03/20 12:15:02;;;;;;;4.70;3.95;;;;;;;;;;5093660;28;20024;-69
2024/03/20 12:17:28;;;;;;;5.85;5.07;;;;;;;;;;5099283;28;20047;-69
2024/03/20 12:19:55;;;;;;;5.15;3.55;;;;;;;;;;5103038;28;21629;-69
2024/03/20 12:22:22;;;;;;;6.38;4.97;;;;;;;;;;5091577;27;20527;-68
2024/03/20 12:24:48;;;;;;;7.25;4.10;;;;;;;;;;5090688;28;20031;-68
2024/03/20 12:27:15;;;;;;;4.55;3.60;;;;;;;;;;5100611;28;20023;-69
2024/03/20 12:29:42;;;;;;;6.70;4.95;;;;;;;;;;5105587;27;20495;-69
2024/03/20 12:32:08;;;;;;;7.32;5.25;;;;;;;;;;5106511;27;20039;-68
2024/03/20 12:34:37;;;;;;;5.57;3.40;;;;;;;;;;5086613;27;20294;-69
2024/03/20 12:37:05;;;;;;;3.65;3.35;;;;;;;;;;5097755;28;20028;-69
2024/03/20 12:39:33;;;;;;;6.10;4.00;;;;;;;;;;5096145;27;20047;-69
2024/03/20 12:42:01;;;;;;;5.93;3.47;;;;;;;;;;5076468;28;20036;-70
2024/03/20 12:44:27;;;;;;;9.10;4.25;;;;;;;;;;5077463;28;20019;-68
2024/03/20 12:46:56;;;;;;;7.28;3.80;;;;;;;;;;5076366;28;20449;-69
2024/03/20 12:49:28;;;;;;;3.47;2.83;;;;;;;;;;5100230;28;20031;-69
2024/03/20 12:51:57;;;;;;;7.40;3.63;;;;;;;;;;5095265;28;20501;-69
2024/03/20 12:54:25;;;;;;;4.25;3.50;;;;;;;;;;5085570;28;20035;-68
2024/03/20 12:56:52;;;;;;;7.30;3.53;;;;;;;;;;5089881;28;20346;-68
2024/03/20 12:59:20;;;;;;;6.88;2.40;;;;;;;;;;5094532;28;20536;-69
2024/03/20 13:01:49;;;;;;;5.90;2.55;;;;;;;;;;5082484;28;20055;-69
2024/03/20 13:04:16;;;;;;;3.92;2.70;;;;;;;;;;5093159;28;20035;-69
2024/03/20 13:06:42;;;;;;;7.72;2.55;;;;;;;;;;5104776;28;20791;-69
2024/03/20 13:09:10;;;;;;;4.07;2.67;;;;;;;;;;5100903;28;20119;-69
2024/03/20 13:11:40;;;;;;;5.53;3.30;;;;;;;;;;5085639;28;20459;-69
2024/03/20 13:14:07;;;;;;;5.40;2.90;;;;;;;;;;5075223;28;20031;-69
2024/03/20 13:16:33;;;;;;;4.20;3.13;;;;;;;;;;5099835;28;20027;-70
2024/03/20 13:19:04;;;;;;;5.63;3.45;;;;;;;;;;5102546;28;20476;-69
2024/03/20 13:21:30;;;;;;;9.63;4.13;;;;;;;;;;5074458;28;20292;-69
2024/03/20 13:24:00;;;;;;;9.02;3.78;;;;;;;;;;5098090;27;20020;-68
2024/03/20 13:26:34;;;;;;;4.43;3.85;;;;;;;;;;5069696;28;20232;-69
2024/03/20 13:29:02;;;;;;;8.13;5.00;;;;;;;;;;5094549;28;20070;-69
2024/03/20 13:31:28;;;;;;;6.95;3.90;;;;;;;;;;5079231;28;20028;-69
2024/03/20 13:34:00;;;;;;;7.13;4.03;;;;;;;;;;5095770;27;20065;-69
2024/03/20 13:36:27;;;;;;;7.70;4.43;;;;;;;;;;5107666;28;20082;-68
2024/03/20 13:38:57;;;;;;;6.30;4.00;;;;;;;;;;5081375;28;20425;-70
2024/03/20 13:42:08;;;;;;;6.38;4.22;;;;;;;;;;5080666;28;20047;-69
2024/03/20 13:44:14;;;;;;;6.22;3.72;;;;;;;;;;5072296;28;20043;-69
2024/03/20 13:46:43;;;;;;;5.55;4.95;;;;;;;;;;5070697;28;20119;-69
2024/03/20 13:49:11;;;;;;;4.10;3.70;;;;;;;;;;5077936;28;20028;-69
2024/03/20 13:51:40;;;;;;;5.53;4.40;;;;;;;;;;5077674;28;20188;-69
2024/03/20 13:54:15;;;;;;;6.00;3.65;;;;;;;;;;5076585;28;20032;-69
2024/03/20 13:56:42;;;;;;;5.65;4.30;;;;;;;;;;5085333;28;20020;-69
2024/03/20 13:59:10;;;;;;;5.82;4.28;;;;;;;;;;5091342;28;20088;-69
2024/03/20 14:01:38;;;;;;;5.75;4.03;;;;;;;;;;5076337;28;20032;-68
2024/03/20 14:04:04;;;;;;;11.48;6.38;;;;;;;;;;5078925;28;20036;-69
2024/03/20 14:06:30;;;;;;;9.32;4.57;;;;;;;;;;5073261;28;20506;-69
2024/03/20 14:08:57;;;;;;;6.18;4.70;;;;;;;;;;5070795;28;20043;-69
2024/03/20 14:11:27;;;;;;;5.63;3.78;;;;;;;;;;5081422;28;20028;-69
2024/03/20 14:13:56;;;;;;;9.07;4.75;;;;;;;;;;5086652;28;20911;-69
2024/03/20 14:16:30;;;;;;;4.95;4.22;;;;;;;;;;5086454;28;20051;-70
2024/03/20 14:18:57;;;;;;;5.53;4.22;;;;;;;;;;5078653;28;20692;-69
2024/03/20 14:21:25;;;;;;;9.27;4.68;;;;;;;;;;5079359;28;20030;-69
2024/03/20 14:23:53;;;;;;;4.38;3.97;;;;;;;;;;5086620;28;20090;-69
2024/03/20 14:26:23;;;;;;;6.32;4.38;;;;;;;;;;5068406;28;20512;-68
2024/03/20 14:29:02;;;;;;;8.65;4.70;;;;;;;;;;5076052;28;20093;-69
2024/03/20 14:31:30;;;;;;;11.27;4.68;;;;;;;;;;5073751;28;20043;-69
2024/03/20 14:33:56;;;;;;;6.90;3.95;;;;;;;;;;5069201;28;20035;-68
2024/03/20 14:36:23;;;;;;;5.97;4.13;;;;;;;;;;5078769;28;20028;-69
2024/03/20 14:38:56;;;;;;;5.22;4.00;;;;;;;;;;5092841;28;20079;-69
2024/03/20 14:41:22;;;;;;;7.65;4.30;;;;;;;;;;5071746;28;20042;-69
2024/03/20 14:43:49;;;;;;;4.57;3.67;;;;;;;;;;5092429;28;20301;-69